sensor_id;sensor_type;location;lat;lon;timestamp;P1;durP1;ratioP1;P2;durP2;ratioP2
57822;SDS011;43650;48.064;20.624;2023-02-26T00:00:22;1.08;;;0.80;;
57822;SDS011;43650;48.064;20.624;2023-02-26T00:01:24;1.15;;;0.80;;
57822;SDS011;43650;48.064;20.624;2023-02-26T00:02:27;0.52;;;0.50;;
57822;SDS011;43650;48.064;20.624;2023-02-26T00:03:27;3.50;;;1.10;;
57822;SDS011;43650;48.064;20.624;2023-02-26T00:04:27;0.90;;;0.60;;
57822;SDS011;43650;48.064;20.624;2023-02-26T00:05:28;0.97;;;0.80;;
57822;SDS011;43650;48.064;20.624;2023-02-26T00:06:30;0.57;;;0.50;;
57822;SDS011;43650;48.064;20.624;2023-02-26T00:07:32;1.02;;;0.73;;
57822;SDS011;43650;48.064;20.624;2023-02-26T00:08:33;2.00;;;0.85;;
57822;SDS011;43650;48.064;20.624;2023-02-26T00:09:34;1.58;;;0.90;;
57822;SDS011;43650;48.064;20.624;2023-02-26T00:10:34;1.77;;;0.80;;
57822;SDS011;43650;48.064;20.624;2023-02-26T00:11:35;0.60;;;0.47;;
57822;SDS011;43650;48.064;20.624;2023-02-26T00:12:36;1.08;;;0.82;;
57822;SDS011;43650;48.064;20.624;2023-02-26T00:13:37;1.55;;;0.80;;
57822;SDS011;43650;48.064;20.624;2023-02-26T00:14:38;0.62;;;0.60;;
57822;SDS011;43650;48.064;20.624;2023-02-26T00:15:39;1.15;;;0.70;;
57822;SDS011;43650;48.064;20.624;2023-02-26T00:16:40;1.45;;;0.88;;
57822;SDS011;43650;48.064;20.624;2023-02-26T00:19:05;0.85;;;0.60;;
57822;SDS011;43650;48.064;20.624;2023-02-26T00:20:06;1.50;;;0.90;;
57822;SDS011;43650;48.064;20.624;2023-02-26T00:21:08;2.42;;;1.00;;
57822;SDS011;43650;48.064;20.624;2023-02-26T00:22:15;1.62;;;0.73;;
57822;SDS011;43650;48.064;20.624;2023-02-26T00:23:16;1.33;;;1.00;;
57822;SDS011;43650;48.064;20.624;2023-02-26T00:24:17;1.02;;;0.70;;
57822;SDS011;43650;48.064;20.624;2023-02-26T00:25:17;1.57;;;0.63;;
57822;SDS011;43650;48.064;20.624;2023-02-26T00:26:18;1.67;;;0.70;;
57822;SDS011;43650;48.064;20.624;2023-02-26T00:28:20;0.70;;;0.70;;
57822;SDS011;43650;48.064;20.624;2023-02-26T00:29:20;0.50;;;0.50;;
57822;SDS011;43650;48.064;20.624;2023-02-26T00:30:21;0.93;;;0.62;;
57822;SDS011;43650;48.064;20.624;2023-02-26T00:31:22;1.23;;;0.57;;
57822;SDS011;43650;48.064;20.624;2023-02-26T00:32:23;2.70;;;1.08;;
57822;SDS011;43650;48.064;20.624;2023-02-26T00:33:24;1.02;;;0.80;;
57822;SDS011;43650;48.064;20.624;2023-02-26T00:34:25;1.70;;;0.80;;
57822;SDS011;43650;48.064;20.624;2023-02-26T00:35:25;1.17;;;0.82;;
57822;SDS011;43650;48.064;20.624;2023-02-26T00:38:10;1.12;;;0.62;;
57822;SDS011;43650;48.064;20.624;2023-02-26T00:40:34;0.62;;;0.62;;
57822;SDS011;43650;48.064;20.624;2023-02-26T00:41:35;0.60;;;0.60;;
57822;SDS011;43650;48.064;20.624;2023-02-26T00:42:37;1.52;;;0.70;;
57822;SDS011;43650;48.064;20.624;2023-02-26T00:43:38;1.08;;;0.82;;
57822;SDS011;43650;48.064;20.624;2023-02-26T00:44:39;0.68;;;0.62;;
57822;SDS011;43650;48.064;20.624;2023-02-26T00:45:43;1.23;;;0.90;;
57822;SDS011;43650;48.064;20.624;2023-02-26T00:46:59;1.75;;;0.93;;
57822;SDS011;43650;48.064;20.624;2023-02-26T00:50:47;1.25;;;0.85;;
57822;SDS011;43650;48.064;20.624;2023-02-26T00:51:56;0.90;;;0.43;;
57822;SDS011;43650;48.064;20.624;2023-02-26T00:55:11;0.75;;;0.60;;
57822;SDS011;43650;48.064;20.624;2023-02-26T00:56:12;1.27;;;0.80;;
57822;SDS011;43650;48.064;20.624;2023-02-26T00:57:13;1.25;;;0.90;;
57822;SDS011;43650;48.064;20.624;2023-02-26T00:58:13;0.70;;;0.40;;
57822;SDS011;43650;48.064;20.624;2023-02-26T00:59:14;1.47;;;0.60;;
57822;SDS011;43650;48.064;20.624;2023-02-26T01:01:16;1.02;;;0.73;;
57822;SDS011;43650;48.064;20.624;2023-02-26T01:02:16;1.63;;;0.70;;
57822;SDS011;43650;48.064;20.624;2023-02-26T01:03:17;1.07;;;0.63;;
57822;SDS011;43650;48.064;20.624;2023-02-26T01:04:18;1.83;;;0.75;;
57822;SDS011;43650;48.064;20.624;2023-02-26T01:05:20;1.45;;;0.62;;
57822;SDS011;43650;48.064;20.624;2023-02-26T01:06:21;1.92;;;0.95;;
57822;SDS011;43650;48.064;20.624;2023-02-26T01:07:27;0.60;;;0.60;;
57822;SDS011;43650;48.064;20.624;2023-02-26T01:08:38;1.15;;;0.80;;
57822;SDS011;43650;48.064;20.624;2023-02-26T01:09:44;1.70;;;0.62;;
57822;SDS011;43650;48.064;20.624;2023-02-26T01:10:44;1.70;;;0.90;;
57822;SDS011;43650;48.064;20.624;2023-02-26T01:11:45;1.80;;;0.90;;
57822;SDS011;43650;48.064;20.624;2023-02-26T01:12:46;0.70;;;0.70;;
57822;SDS011;43650;48.064;20.624;2023-02-26T01:13:47;1.02;;;0.75;;
57822;SDS011;43650;48.064;20.624;2023-02-26T01:14:47;2.60;;;1.20;;
57822;SDS011;43650;48.064;20.624;2023-02-26T01:15:51;6.65;;;2.20;;
57822;SDS011;43650;48.064;20.624;2023-02-26T01:16:59;10.20;;;4.07;;
57822;SDS011;43650;48.064;20.624;2023-02-26T01:19:13;11.12;;;4.60;;
57822;SDS011;43650;48.064;20.624;2023-02-26T01:20:24;9.93;;;4.80;;
57822;SDS011;43650;48.064;20.624;2023-02-26T01:21:30;7.53;;;3.45;;
57822;SDS011;43650;48.064;20.624;2023-02-26T01:22:43;4.68;;;1.60;;
57822;SDS011;43650;48.064;20.624;2023-02-26T01:23:48;1.37;;;0.85;;
57822;SDS011;43650;48.064;20.624;2023-02-26T01:24:55;1.65;;;0.90;;
57822;SDS011;43650;48.064;20.624;2023-02-26T01:26:01;3.20;;;0.88;;
57822;SDS011;43650;48.064;20.624;2023-02-26T01:27:05;1.75;;;0.80;;
57822;SDS011;43650;48.064;20.624;2023-02-26T01:28:05;1.70;;;0.90;;
57822;SDS011;43650;48.064;20.624;2023-02-26T01:29:06;1.30;;;0.77;;
57822;SDS011;43650;48.064;20.624;2023-02-26T01:30:07;3.22;;;1.10;;
57822;SDS011;43650;48.064;20.624;2023-02-26T01:31:10;1.50;;;0.88;;
57822;SDS011;43650;48.064;20.624;2023-02-26T01:32:37;1.90;;;0.80;;
57822;SDS011;43650;48.064;20.624;2023-02-26T01:33:45;1.92;;;0.90;;
57822;SDS011;43650;48.064;20.624;2023-02-26T01:34:52;2.33;;;1.12;;
57822;SDS011;43650;48.064;20.624;2023-02-26T01:35:54;1.02;;;0.80;;
57822;SDS011;43650;48.064;20.624;2023-02-26T01:38:14;3.20;;;1.50;;
57822;SDS011;43650;48.064;20.624;2023-02-26T01:39:24;1.62;;;0.95;;
57822;SDS011;43650;48.064;20.624;2023-02-26T01:41:51;1.75;;;1.08;;
57822;SDS011;43650;48.064;20.624;2023-02-26T01:42:55;2.37;;;1.10;;
57822;SDS011;43650;48.064;20.624;2023-02-26T01:45:24;3.85;;;1.65;;
57822;SDS011;43650;48.064;20.624;2023-02-26T01:48:01;1.77;;;0.95;;
57822;SDS011;43650;48.064;20.624;2023-02-26T01:49:05;1.95;;;1.25;;
57822;SDS011;43650;48.064;20.624;2023-02-26T01:50:16;1.42;;;0.80;;
57822;SDS011;43650;48.064;20.624;2023-02-26T01:51:36;2.30;;;0.90;;
57822;SDS011;43650;48.064;20.624;2023-02-26T01:54:21;1.60;;;0.98;;
57822;SDS011;43650;48.064;20.624;2023-02-26T01:55:27;2.53;;;1.67;;
57822;SDS011;43650;48.064;20.624;2023-02-26T01:56:28;3.83;;;1.80;;
57822;SDS011;43650;48.064;20.624;2023-02-26T01:57:29;4.60;;;1.93;;
57822;SDS011;43650;48.064;20.624;2023-02-26T01:58:31;6.90;;;2.90;;
57822;SDS011;43650;48.064;20.624;2023-02-26T01:59:35;6.35;;;3.65;;
57822;SDS011;43650;48.064;20.624;2023-02-26T02:00:37;7.28;;;4.40;;
57822;SDS011;43650;48.064;20.624;2023-02-26T02:01:38;9.63;;;5.40;;
57822;SDS011;43650;48.064;20.624;2023-02-26T02:02:39;13.13;;;6.05;;
57822;SDS011;43650;48.064;20.624;2023-02-26T02:03:40;17.23;;;6.63;;
57822;SDS011;43650;48.064;20.624;2023-02-26T02:04:41;17.00;;;6.60;;
57822;SDS011;43650;48.064;20.624;2023-02-26T02:05:43;11.40;;;4.68;;
57822;SDS011;43650;48.064;20.624;2023-02-26T02:07:11;14.15;;;5.72;;
57822;SDS011;43650;48.064;20.624;2023-02-26T02:08:11;13.67;;;6.17;;
57822;SDS011;43650;48.064;20.624;2023-02-26T02:09:12;16.12;;;5.72;;
57822;SDS011;43650;48.064;20.624;2023-02-26T02:10:12;12.00;;;5.32;;
57822;SDS011;43650;48.064;20.624;2023-02-26T02:11:13;12.43;;;6.00;;
57822;SDS011;43650;48.064;20.624;2023-02-26T02:15:58;10.40;;;5.57;;
57822;SDS011;43650;48.064;20.624;2023-02-26T02:27:51;18.42;;;6.95;;
57822;SDS011;43650;48.064;20.624;2023-02-26T02:30:30;22.52;;;8.60;;
57822;SDS011;43650;48.064;20.624;2023-02-26T02:31:56;14.30;;;6.00;;
57822;SDS011;43650;48.064;20.624;2023-02-26T02:33:17;16.23;;;7.90;;
57822;SDS011;43650;48.064;20.624;2023-02-26T02:34:21;12.88;;;6.22;;
57822;SDS011;43650;48.064;20.624;2023-02-26T02:38:15;5.37;;;2.70;;
57822;SDS011;43650;48.064;20.624;2023-02-26T02:39:21;4.87;;;1.77;;
57822;SDS011;43650;48.064;20.624;2023-02-26T02:41:34;3.75;;;1.30;;
57822;SDS011;43650;48.064;20.624;2023-02-26T02:42:38;5.80;;;1.80;;
57822;SDS011;43650;48.064;20.624;2023-02-26T02:43:42;8.60;;;2.42;;
57822;SDS011;43650;48.064;20.624;2023-02-26T02:44:44;2.70;;;1.63;;
57822;SDS011;43650;48.064;20.624;2023-02-26T02:45:51;2.67;;;1.75;;
57822;SDS011;43650;48.064;20.624;2023-02-26T02:46:55;2.80;;;1.20;;
57822;SDS011;43650;48.064;20.624;2023-02-26T02:49:35;2.95;;;1.20;;
57822;SDS011;43650;48.064;20.624;2023-02-26T02:50:42;4.18;;;1.90;;
57822;SDS011;43650;48.064;20.624;2023-02-26T02:51:46;3.15;;;1.23;;
57822;SDS011;43650;48.064;20.624;2023-02-26T02:52:56;4.18;;;1.77;;
57822;SDS011;43650;48.064;20.624;2023-02-26T02:54:04;3.33;;;1.58;;
57822;SDS011;43650;48.064;20.624;2023-02-26T02:56:17;5.95;;;2.97;;
57822;SDS011;43650;48.064;20.624;2023-02-26T02:57:25;10.10;;;3.87;;
57822;SDS011;43650;48.064;20.624;2023-02-26T02:58:30;8.10;;;3.50;;
57822;SDS011;43650;48.064;20.624;2023-02-26T02:59:36;10.38;;;4.25;;
57822;SDS011;43650;48.064;20.624;2023-02-26T03:00:41;6.55;;;3.67;;
57822;SDS011;43650;48.064;20.624;2023-02-26T03:01:48;7.78;;;3.75;;
57822;SDS011;43650;48.064;20.624;2023-02-26T03:02:56;6.75;;;2.92;;
57822;SDS011;43650;48.064;20.624;2023-02-26T03:04:00;2.75;;;1.75;;
57822;SDS011;43650;48.064;20.624;2023-02-26T03:05:02;2.45;;;1.58;;
57822;SDS011;43650;48.064;20.624;2023-02-26T03:06:03;2.60;;;1.75;;
57822;SDS011;43650;48.064;20.624;2023-02-26T03:07:04;4.00;;;1.80;;
57822;SDS011;43650;48.064;20.624;2023-02-26T03:08:05;5.20;;;2.57;;
57822;SDS011;43650;48.064;20.624;2023-02-26T03:09:11;3.55;;;1.70;;
57822;SDS011;43650;48.064;20.624;2023-02-26T03:10:12;3.87;;;1.80;;
57822;SDS011;43650;48.064;20.624;2023-02-26T03:11:13;2.35;;;1.42;;
57822;SDS011;43650;48.064;20.624;2023-02-26T03:12:14;1.62;;;1.00;;
57822;SDS011;43650;48.064;20.624;2023-02-26T03:13:15;1.33;;;1.02;;
57822;SDS011;43650;48.064;20.624;2023-02-26T03:14:18;2.67;;;1.35;;
57822;SDS011;43650;48.064;20.624;2023-02-26T03:15:25;3.07;;;1.20;;
57822;SDS011;43650;48.064;20.624;2023-02-26T03:20:20;1.90;;;1.12;;
57822;SDS011;43650;48.064;20.624;2023-02-26T03:23:48;3.62;;;1.50;;
57822;SDS011;43650;48.064;20.624;2023-02-26T03:26:14;3.15;;;1.42;;
57822;SDS011;43650;48.064;20.624;2023-02-26T03:27:21;4.55;;;1.42;;
57822;SDS011;43650;48.064;20.624;2023-02-26T03:31:04;3.83;;;1.60;;
57822;SDS011;43650;48.064;20.624;2023-02-26T03:32:16;4.40;;;2.03;;
57822;SDS011;43650;48.064;20.624;2023-02-26T03:33:59;1.95;;;1.45;;
57822;SDS011;43650;48.064;20.624;2023-02-26T03:36:17;2.90;;;1.12;;
57822;SDS011;43650;48.064;20.624;2023-02-26T03:37:48;4.00;;;1.73;;
57822;SDS011;43650;48.064;20.624;2023-02-26T03:38:58;6.62;;;2.05;;
57822;SDS011;43650;48.064;20.624;2023-02-26T03:40:06;4.45;;;1.73;;
57822;SDS011;43650;48.064;20.624;2023-02-26T03:41:20;5.05;;;2.60;;
57822;SDS011;43650;48.064;20.624;2023-02-26T03:42:31;8.82;;;4.40;;
57822;SDS011;43650;48.064;20.624;2023-02-26T03:43:44;7.10;;;2.87;;
57822;SDS011;43650;48.064;20.624;2023-02-26T03:45:00;4.03;;;1.90;;
57822;SDS011;43650;48.064;20.624;2023-02-26T03:46:05;2.25;;;1.55;;
57822;SDS011;43650;48.064;20.624;2023-02-26T03:47:10;3.62;;;1.23;;
57822;SDS011;43650;48.064;20.624;2023-02-26T03:48:14;1.12;;;0.88;;
57822;SDS011;43650;48.064;20.624;2023-02-26T03:50:03;2.90;;;1.35;;
57822;SDS011;43650;48.064;20.624;2023-02-26T03:50:43;1.60;;;1.25;;
57822;SDS011;43650;48.064;20.624;2023-02-26T03:51:46;2.83;;;1.60;;
57822;SDS011;43650;48.064;20.624;2023-02-26T03:52:47;4.70;;;1.30;;
57822;SDS011;43650;48.064;20.624;2023-02-26T03:53:53;3.05;;;1.33;;
57822;SDS011;43650;48.064;20.624;2023-02-26T03:55:05;2.37;;;1.20;;
57822;SDS011;43650;48.064;20.624;2023-02-26T03:57:35;3.05;;;1.67;;
57822;SDS011;43650;48.064;20.624;2023-02-26T03:58:36;2.75;;;1.45;;
57822;SDS011;43650;48.064;20.624;2023-02-26T03:59:36;3.27;;;1.50;;
57822;SDS011;43650;48.064;20.624;2023-02-26T04:00:37;2.28;;;1.48;;
57822;SDS011;43650;48.064;20.624;2023-02-26T04:01:46;3.33;;;1.65;;
57822;SDS011;43650;48.064;20.624;2023-02-26T04:04:25;4.00;;;2.17;;
57822;SDS011;43650;48.064;20.624;2023-02-26T04:05:34;5.40;;;1.62;;
57822;SDS011;43650;48.064;20.624;2023-02-26T04:06:38;3.83;;;1.62;;
57822;SDS011;43650;48.064;20.624;2023-02-26T04:07:38;5.30;;;1.77;;
57822;SDS011;43650;48.064;20.624;2023-02-26T04:08:39;2.37;;;1.55;;
57822;SDS011;43650;48.064;20.624;2023-02-26T04:09:40;2.22;;;1.58;;
57822;SDS011;43650;48.064;20.624;2023-02-26T04:10:47;4.53;;;2.00;;
57822;SDS011;43650;48.064;20.624;2023-02-26T04:11:52;5.12;;;1.90;;
57822;SDS011;43650;48.064;20.624;2023-02-26T04:12:57;3.40;;;1.77;;
57822;SDS011;43650;48.064;20.624;2023-02-26T04:13:59;12.45;;;3.60;;
57822;SDS011;43650;48.064;20.624;2023-02-26T04:14:59;11.93;;;2.43;;
57822;SDS011;43650;48.064;20.624;2023-02-26T04:16:00;4.70;;;2.33;;
57822;SDS011;43650;48.064;20.624;2023-02-26T04:17:00;3.27;;;1.90;;
57822;SDS011;43650;48.064;20.624;2023-02-26T04:18:01;3.63;;;1.97;;
57822;SDS011;43650;48.064;20.624;2023-02-26T04:19:01;4.73;;;2.27;;
57822;SDS011;43650;48.064;20.624;2023-02-26T04:20:02;3.13;;;2.33;;
57822;SDS011;43650;48.064;20.624;2023-02-26T04:21:09;4.43;;;2.15;;
57822;SDS011;43650;48.064;20.624;2023-02-26T04:22:11;3.03;;;1.95;;
57822;SDS011;43650;48.064;20.624;2023-02-26T04:23:12;2.20;;;1.42;;
57822;SDS011;43650;48.064;20.624;2023-02-26T04:24:12;3.63;;;2.00;;
57822;SDS011;43650;48.064;20.624;2023-02-26T04:25:13;4.43;;;1.83;;
57822;SDS011;43650;48.064;20.624;2023-02-26T04:26:13;3.37;;;2.63;;
57822;SDS011;43650;48.064;20.624;2023-02-26T04:27:14;4.33;;;2.23;;
57822;SDS011;43650;48.064;20.624;2023-02-26T04:28:14;5.27;;;2.77;;
57822;SDS011;43650;48.064;20.624;2023-02-26T04:29:15;3.20;;;1.80;;
57822;SDS011;43650;48.064;20.624;2023-02-26T04:30:15;4.07;;;2.23;;
57822;SDS011;43650;48.064;20.624;2023-02-26T04:31:16;3.37;;;1.90;;
57822;SDS011;43650;48.064;20.624;2023-02-26T04:32:16;4.53;;;2.53;;
57822;SDS011;43650;48.064;20.624;2023-02-26T04:33:17;3.23;;;2.03;;
57822;SDS011;43650;48.064;20.624;2023-02-26T04:34:17;4.90;;;1.97;;
57822;SDS011;43650;48.064;20.624;2023-02-26T04:35:18;3.23;;;2.20;;
57822;SDS011;43650;48.064;20.624;2023-02-26T04:36:18;7.77;;;2.93;;
57822;SDS011;43650;48.064;20.624;2023-02-26T04:37:19;8.03;;;3.27;;
57822;SDS011;43650;48.064;20.624;2023-02-26T04:38:19;3.43;;;2.23;;
57822;SDS011;43650;48.064;20.624;2023-02-26T04:39:19;3.30;;;2.03;;
57822;SDS011;43650;48.064;20.624;2023-02-26T04:40:20;3.63;;;2.13;;
57822;SDS011;43650;48.064;20.624;2023-02-26T04:41:22;3.47;;;2.00;;
57822;SDS011;43650;48.064;20.624;2023-02-26T04:42:23;6.63;;;2.70;;
57822;SDS011;43650;48.064;20.624;2023-02-26T04:43:23;9.83;;;2.90;;
57822;SDS011;43650;48.064;20.624;2023-02-26T04:44:24;6.00;;;3.80;;
57822;SDS011;43650;48.064;20.624;2023-02-26T04:45:24;6.63;;;3.17;;
57822;SDS011;43650;48.064;20.624;2023-02-26T04:46:25;10.60;;;3.63;;
57822;SDS011;43650;48.064;20.624;2023-02-26T04:47:25;5.60;;;2.50;;
57822;SDS011;43650;48.064;20.624;2023-02-26T04:48:25;12.70;;;6.37;;
57822;SDS011;43650;48.064;20.624;2023-02-26T04:49:26;20.53;;;6.27;;
57822;SDS011;43650;48.064;20.624;2023-02-26T04:50:26;23.80;;;7.57;;
57822;SDS011;43650;48.064;20.624;2023-02-26T04:51:27;17.70;;;7.03;;
57822;SDS011;43650;48.064;20.624;2023-02-26T04:52:27;7.27;;;3.80;;
57822;SDS011;43650;48.064;20.624;2023-02-26T04:53:28;7.13;;;3.27;;
57822;SDS011;43650;48.064;20.624;2023-02-26T04:54:28;11.40;;;4.87;;
57822;SDS011;43650;48.064;20.624;2023-02-26T04:55:29;9.68;;;5.62;;
57822;SDS011;43650;48.064;20.624;2023-02-26T04:56:29;12.50;;;5.67;;
57822;SDS011;43650;48.064;20.624;2023-02-26T04:57:31;14.93;;;7.80;;
57822;SDS011;43650;48.064;20.624;2023-02-26T04:58:32;16.62;;;7.50;;
57822;SDS011;43650;48.064;20.624;2023-02-26T04:59:33;10.85;;;5.78;;
57822;SDS011;43650;48.064;20.624;2023-02-26T05:00:33;13.17;;;5.73;;
57822;SDS011;43650;48.064;20.624;2023-02-26T05:01:34;11.20;;;6.70;;
57822;SDS011;43650;48.064;20.624;2023-02-26T05:02:34;9.87;;;6.17;;
57822;SDS011;43650;48.064;20.624;2023-02-26T05:03:35;15.00;;;4.80;;
57822;SDS011;43650;48.064;20.624;2023-02-26T05:04:35;8.67;;;3.63;;
57822;SDS011;43650;48.064;20.624;2023-02-26T05:05:36;6.40;;;3.20;;
57822;SDS011;43650;48.064;20.624;2023-02-26T05:06:36;6.80;;;2.93;;
57822;SDS011;43650;48.064;20.624;2023-02-26T05:07:36;4.03;;;2.33;;
57822;SDS011;43650;48.064;20.624;2023-02-26T05:08:37;5.83;;;2.60;;
57822;SDS011;43650;48.064;20.624;2023-02-26T05:09:41;2.75;;;1.62;;
57822;SDS011;43650;48.064;20.624;2023-02-26T05:10:41;5.77;;;2.50;;
57822;SDS011;43650;48.064;20.624;2023-02-26T05:11:41;4.93;;;2.27;;
57822;SDS011;43650;48.064;20.624;2023-02-26T05:12:42;5.03;;;2.67;;
57822;SDS011;43650;48.064;20.624;2023-02-26T05:13:42;3.80;;;2.03;;
57822;SDS011;43650;48.064;20.624;2023-02-26T05:14:43;3.83;;;1.60;;
57822;SDS011;43650;48.064;20.624;2023-02-26T05:15:43;5.20;;;2.47;;
57822;SDS011;43650;48.064;20.624;2023-02-26T05:16:44;2.97;;;1.90;;
57822;SDS011;43650;48.064;20.624;2023-02-26T05:17:44;7.53;;;3.57;;
57822;SDS011;43650;48.064;20.624;2023-02-26T05:18:45;5.47;;;2.40;;
57822;SDS011;43650;48.064;20.624;2023-02-26T05:19:45;6.40;;;2.67;;
57822;SDS011;43650;48.064;20.624;2023-02-26T05:20:50;7.53;;;2.50;;
57822;SDS011;43650;48.064;20.624;2023-02-26T05:21:51;3.53;;;2.00;;
57822;SDS011;43650;48.064;20.624;2023-02-26T05:22:52;9.30;;;2.93;;
57822;SDS011;43650;48.064;20.624;2023-02-26T05:23:52;4.10;;;2.23;;
57822;SDS011;43650;48.064;20.624;2023-02-26T05:24:52;9.40;;;3.30;;
57822;SDS011;43650;48.064;20.624;2023-02-26T05:25:54;5.47;;;2.87;;
57822;SDS011;43650;48.064;20.624;2023-02-26T05:26:55;3.08;;;1.67;;
57822;SDS011;43650;48.064;20.624;2023-02-26T05:27:58;4.53;;;2.58;;
57822;SDS011;43650;48.064;20.624;2023-02-26T05:28:59;4.53;;;2.78;;
57822;SDS011;43650;48.064;20.624;2023-02-26T05:29:59;2.53;;;2.00;;
57822;SDS011;43650;48.064;20.624;2023-02-26T05:31:00;4.10;;;2.43;;
57822;SDS011;43650;48.064;20.624;2023-02-26T05:32:01;7.57;;;2.43;;
57822;SDS011;43650;48.064;20.624;2023-02-26T05:33:02;4.20;;;2.12;;
57822;SDS011;43650;48.064;20.624;2023-02-26T05:34:03;4.20;;;2.93;;
57822;SDS011;43650;48.064;20.624;2023-02-26T05:35:03;6.60;;;2.77;;
57822;SDS011;43650;48.064;20.624;2023-02-26T05:36:04;8.13;;;3.40;;
57822;SDS011;43650;48.064;20.624;2023-02-26T05:37:06;6.55;;;2.85;;
57822;SDS011;43650;48.064;20.624;2023-02-26T05:38:06;4.00;;;2.17;;
57822;SDS011;43650;48.064;20.624;2023-02-26T05:39:07;5.90;;;2.43;;
57822;SDS011;43650;48.064;20.624;2023-02-26T05:41:11;3.47;;;1.87;;
57822;SDS011;43650;48.064;20.624;2023-02-26T05:42:12;3.10;;;2.23;;
57822;SDS011;43650;48.064;20.624;2023-02-26T05:43:12;4.57;;;2.20;;
57822;SDS011;43650;48.064;20.624;2023-02-26T05:44:13;6.53;;;2.60;;
57822;SDS011;43650;48.064;20.624;2023-02-26T05:45:13;5.33;;;2.40;;
57822;SDS011;43650;48.064;20.624;2023-02-26T05:46:13;5.90;;;2.50;;
57822;SDS011;43650;48.064;20.624;2023-02-26T05:47:14;4.70;;;2.43;;
57822;SDS011;43650;48.064;20.624;2023-02-26T05:48:14;4.47;;;2.53;;
57822;SDS011;43650;48.064;20.624;2023-02-26T05:49:15;4.83;;;2.73;;
57822;SDS011;43650;48.064;20.624;2023-02-26T05:50:15;5.03;;;2.80;;
57822;SDS011;43650;48.064;20.624;2023-02-26T05:51:16;4.10;;;1.90;;
57822;SDS011;43650;48.064;20.624;2023-02-26T05:52:16;5.00;;;2.67;;
57822;SDS011;43650;48.064;20.624;2023-02-26T05:53:17;2.40;;;2.13;;
57822;SDS011;43650;48.064;20.624;2023-02-26T05:54:17;5.15;;;2.40;;
57822;SDS011;43650;48.064;20.624;2023-02-26T05:55:18;5.90;;;2.08;;
57822;SDS011;43650;48.064;20.624;2023-02-26T05:56:19;4.40;;;2.30;;
57822;SDS011;43650;48.064;20.624;2023-02-26T05:57:19;16.03;;;5.57;;
57822;SDS011;43650;48.064;20.624;2023-02-26T05:58:19;6.13;;;2.53;;
57822;SDS011;43650;48.064;20.624;2023-02-26T05:59:20;5.20;;;2.72;;
57822;SDS011;43650;48.064;20.624;2023-02-26T06:00:21;4.83;;;2.50;;
57822;SDS011;43650;48.064;20.624;2023-02-26T06:01:21;2.83;;;1.93;;
57822;SDS011;43650;48.064;20.624;2023-02-26T06:02:22;5.37;;;2.07;;
57822;SDS011;43650;48.064;20.624;2023-02-26T06:03:22;2.90;;;1.57;;
57822;SDS011;43650;48.064;20.624;2023-02-26T06:04:22;1.80;;;1.30;;
57822;SDS011;43650;48.064;20.624;2023-02-26T06:05:23;5.13;;;2.43;;
57822;SDS011;43650;48.064;20.624;2023-02-26T06:06:23;1.83;;;1.30;;
57822;SDS011;43650;48.064;20.624;2023-02-26T06:07:25;2.60;;;1.52;;
57822;SDS011;43650;48.064;20.624;2023-02-26T06:08:26;2.67;;;1.53;;
57822;SDS011;43650;48.064;20.624;2023-02-26T06:09:26;5.50;;;2.73;;
57822;SDS011;43650;48.064;20.624;2023-02-26T06:10:27;8.73;;;3.33;;
57822;SDS011;43650;48.064;20.624;2023-02-26T06:11:28;11.43;;;4.57;;
57822;SDS011;43650;48.064;20.624;2023-02-26T06:12:28;34.13;;;12.93;;
57822;SDS011;43650;48.064;20.624;2023-02-26T06:13:29;39.80;;;14.03;;
57822;SDS011;43650;48.064;20.624;2023-02-26T06:14:29;32.80;;;11.73;;
57822;SDS011;43650;48.064;20.624;2023-02-26T06:15:30;61.70;;;21.30;;
57822;SDS011;43650;48.064;20.624;2023-02-26T06:16:30;49.47;;;20.90;;
57822;SDS011;43650;48.064;20.624;2023-02-26T06:17:31;23.98;;;10.40;;
57822;SDS011;43650;48.064;20.624;2023-02-26T06:18:32;21.70;;;7.65;;
57822;SDS011;43650;48.064;20.624;2023-02-26T06:19:33;66.10;;;20.83;;
57822;SDS011;43650;48.064;20.624;2023-02-26T06:20:33;21.37;;;8.53;;
57822;SDS011;43650;48.064;20.624;2023-02-26T06:21:34;23.23;;;11.35;;
57822;SDS011;43650;48.064;20.624;2023-02-26T06:22:35;40.07;;;18.20;;
57822;SDS011;43650;48.064;20.624;2023-02-26T06:23:35;60.53;;;23.37;;
57822;SDS011;43650;48.064;20.624;2023-02-26T06:24:36;34.77;;;13.17;;
57822;SDS011;43650;48.064;20.624;2023-02-26T06:25:36;21.97;;;8.73;;
57822;SDS011;43650;48.064;20.624;2023-02-26T06:26:36;30.30;;;12.57;;
57822;SDS011;43650;48.064;20.624;2023-02-26T06:27:37;43.50;;;15.87;;
57822;SDS011;43650;48.064;20.624;2023-02-26T06:28:37;27.83;;;10.77;;
57822;SDS011;43650;48.064;20.624;2023-02-26T06:29:38;45.60;;;19.50;;
57822;SDS011;43650;48.064;20.624;2023-02-26T06:30:38;29.43;;;12.33;;
57822;SDS011;43650;48.064;20.624;2023-02-26T06:31:39;53.07;;;21.47;;
57822;SDS011;43650;48.064;20.624;2023-02-26T06:32:39;75.73;;;31.67;;
57822;SDS011;43650;48.064;20.624;2023-02-26T06:33:40;39.90;;;15.53;;
57822;SDS011;43650;48.064;20.624;2023-02-26T06:34:40;33.70;;;12.00;;
57822;SDS011;43650;48.064;20.624;2023-02-26T06:35:40;16.37;;;7.90;;
57822;SDS011;43650;48.064;20.624;2023-02-26T06:36:42;29.65;;;10.90;;
57822;SDS011;43650;48.064;20.624;2023-02-26T06:38:43;9.40;;;4.85;;
57822;SDS011;43650;48.064;20.624;2023-02-26T06:39:44;9.00;;;4.25;;
57822;SDS011;43650;48.064;20.624;2023-02-26T06:40:45;25.97;;;8.63;;
57822;SDS011;43650;48.064;20.624;2023-02-26T06:42:46;11.07;;;5.35;;
57822;SDS011;43650;48.064;20.624;2023-02-26T06:43:47;4.47;;;1.83;;
57822;SDS011;43650;48.064;20.624;2023-02-26T06:44:48;4.70;;;2.67;;
57822;SDS011;43650;48.064;20.624;2023-02-26T06:45:48;3.97;;;2.40;;
57822;SDS011;43650;48.064;20.624;2023-02-26T06:46:48;8.33;;;3.30;;
57822;SDS011;43650;48.064;20.624;2023-02-26T06:47:49;14.77;;;5.13;;
57822;SDS011;43650;48.064;20.624;2023-02-26T06:48:50;19.90;;;9.10;;
57822;SDS011;43650;48.064;20.624;2023-02-26T06:49:51;18.40;;;8.30;;
57822;SDS011;43650;48.064;20.624;2023-02-26T06:50:51;17.60;;;7.43;;
57822;SDS011;43650;48.064;20.624;2023-02-26T06:51:52;11.00;;;5.20;;
57822;SDS011;43650;48.064;20.624;2023-02-26T06:52:52;5.10;;;3.07;;
57822;SDS011;43650;48.064;20.624;2023-02-26T06:53:52;15.17;;;6.70;;
57822;SDS011;43650;48.064;20.624;2023-02-26T06:54:53;7.33;;;3.73;;
57822;SDS011;43650;48.064;20.624;2023-02-26T06:55:53;10.10;;;5.70;;
57822;SDS011;43650;48.064;20.624;2023-02-26T06:56:54;59.90;;;22.93;;
57822;SDS011;43650;48.064;20.624;2023-02-26T06:57:56;106.10;;;32.33;;
57822;SDS011;43650;48.064;20.624;2023-02-26T06:58:57;30.42;;;10.65;;
57822;SDS011;43650;48.064;20.624;2023-02-26T06:59:58;16.77;;;7.63;;
57822;SDS011;43650;48.064;20.624;2023-02-26T07:00:59;34.97;;;13.50;;
57822;SDS011;43650;48.064;20.624;2023-02-26T07:02:02;13.05;;;5.97;;
57822;SDS011;43650;48.064;20.624;2023-02-26T07:03:03;11.87;;;4.67;;
57822;SDS011;43650;48.064;20.624;2023-02-26T07:04:04;14.43;;;6.22;;
57822;SDS011;43650;48.064;20.624;2023-02-26T07:05:04;6.87;;;3.53;;
57822;SDS011;43650;48.064;20.624;2023-02-26T07:06:06;16.58;;;7.28;;
57822;SDS011;43650;48.064;20.624;2023-02-26T07:07:07;18.12;;;7.87;;
57822;SDS011;43650;48.064;20.624;2023-02-26T07:08:07;36.43;;;16.13;;
57822;SDS011;43650;48.064;20.624;2023-02-26T07:09:08;8.97;;;5.13;;
57822;SDS011;43650;48.064;20.624;2023-02-26T07:10:09;9.13;;;4.40;;
57822;SDS011;43650;48.064;20.624;2023-02-26T07:11:11;12.10;;;6.15;;